sensor_id;sensor_type;location;lat;lon;timestamp;temperature;humidity
4874;DHT22;2451;49.970;9.068;2022-07-10T00:02:05;15.80;99.90
4874;DHT22;2451;49.970;9.068;2022-07-10T00:04:31;15.70;99.90
4874;DHT22;2451;49.970;9.068;2022-07-10T00:06:56;15.70;99.90
4874;DHT22;2451;49.970;9.068;2022-07-10T00:09:24;15.70;99.90
4874;DHT22;2451;49.970;9.068;2022-07-10T00:11:49;15.70;99.90
4874;DHT22;2451;49.970;9.068;2022-07-10T00:14:15;15.70;99.90
4874;DHT22;2451;49.970;9.068;2022-07-10T00:16:41;15.70;99.90
4874;DHT22;2451;49.970;9.068;2022-07-10T00:19:07;15.70;99.90
4874;DHT22;2451;49.970;9.068;2022-07-10T00:21:32;15.70;99.90
4874;DHT22;2451;49.970;9.068;2022-07-10T00:23:58;15.70;99.90
4874;DHT22;2451;49.970;9.068;2022-07-10T00:26:23;15.70;99.90
4874;DHT22;2451;49.970;9.068;2022-07-10T00:28:49;15.70;99.90
4874;DHT22;2451;49.970;9.068;2022-07-10T00:31:14;15.70;99.90
4874;DHT22;2451;49.970;9.068;2022-07-10T00:33:40;15.70;99.90
4874;DHT22;2451;49.970;9.068;2022-07-10T00:36:05;15.70;99.90
4874;DHT22;2451;49.970;9.068;2022-07-10T00:38:32;15.60;99.90
4874;DHT22;2451;49.970;9.068;2022-07-10T00:40:58;15.50;99.90
4874;DHT22;2451;49.970;9.068;2022-07-10T00:43:24;15.50;99.90
4874;DHT22;2451;49.970;9.068;2022-07-10T00:45:49;15.40;99.90
4874;DHT22;2451;49.970;9.068;2022-07-10T00:48:15;15.30;99.90
4874;DHT22;2451;49.970;9.068;2022-07-10T00:50:42;15.30;99.90
4874;DHT22;2451;49.970;9.068;2022-07-10T00:53:09;15.30;99.90
4874;DHT22;2451;49.970;9.068;2022-07-10T00:55:36;15.30;99.90
4874;DHT22;2451;49.970;9.068;2022-07-10T00:58:04;15.20;99.90
4874;DHT22;2451;49.970;9.068;2022-07-10T01:00:32;15.20;99.90
4874;DHT22;2451;49.970;9.068;2022-07-10T01:02:58;15.10;99.90
4874;DHT22;2451;49.970;9.068;2022-07-10T01:05:23;15.10;99.90
4874;DHT22;2451;49.970;9.068;2022-07-10T01:07:49;15.00;99.90
4874;DHT22;2451;49.970;9.068;2022-07-10T01:10:14;15.00;99.90
4874;DHT22;2451;49.970;9.068;2022-07-10T01:12:40;15.00;99.90
4874;DHT22;2451;49.970;9.068;2022-07-10T01:15:06;15.00;99.90
4874;DHT22;2451;49.970;9.068;2022-07-10T01:17:32;15.00;99.90
4874;DHT22;2451;49.970;9.068;2022-07-10T01:19:58;15.00;99.90
4874;DHT22;2451;49.970;9.068;2022-07-10T01:22:28;15.00;99.90
4874;DHT22;2451;49.970;9.068;2022-07-10T01:24:54;15.00;99.90
4874;DHT22;2451;49.970;9.068;2022-07-10T01:27:19;15.00;99.90
4874;DHT22;2451;49.970;9.068;2022-07-10T01:29:46;15.00;99.90
4874;DHT22;2451;49.970;9.068;2022-07-10T01:32:11;15.00;99.90
4874;DHT22;2451;49.970;9.068;2022-07-10T01:34:37;15.00;99.90
4874;DHT22;2451;49.970;9.068;2022-07-10T01:37:03;15.00;99.90
4874;DHT22;2451;49.970;9.068;2022-07-10T01:39:28;15.00;99.90
4874;DHT22;2451;49.970;9.068;2022-07-10T01:41:54;14.90;99.90
4874;DHT22;2451;49.970;9.068;2022-07-10T01:44:19;14.90;99.90
4874;DHT22;2451;49.970;9.068;2022-07-10T01:46:46;14.70;99.90
4874;DHT22;2451;49.970;9.068;2022-07-10T01:49:12;14.70;99.90
4874;DHT22;2451;49.970;9.068;2022-07-10T01:51:37;14.60;99.90
4874;DHT22;2451;49.970;9.068;2022-07-10T01:54:03;14.50;99.90
4874;DHT22;2451;49.970;9.068;2022-07-10T01:56:28;14.50;99.90
4874;DHT22;2451;49.970;9.068;2022-07-10T01:58:54;14.40;99.90
4874;DHT22;2451;49.970;9.068;2022-07-10T02:01:19;14.40;99.90
4874;DHT22;2451;49.970;9.068;2022-07-10T02:03:45;14.40;99.90
4874;DHT22;2451;49.970;9.068;2022-07-10T02:06:29;14.30;99.90
4874;DHT22;2451;49.970;9.068;2022-07-10T02:08:55;14.30;99.90
4874;DHT22;2451;49.970;9.068;2022-07-10T02:11:20;14.20;99.90
4874;DHT22;2451;49.970;9.068;2022-07-10T02:13:46;14.20;99.90
4874;DHT22;2451;49.970;9.068;2022-07-10T02:16:11;14.20;99.90
4874;DHT22;2451;49.970;9.068;2022-07-10T02:18:37;14.20;99.90
4874;DHT22;2451;49.970;9.068;2022-07-10T02:21:04;14.10;99.90
4874;DHT22;2451;49.970;9.068;2022-07-10T02:23:30;14.10;99.90
4874;DHT22;2451;49.970;9.068;2022-07-10T02:25:56;14.10;99.90
4874;DHT22;2451;49.970;9.068;2022-07-10T02:28:21;14.10;99.90
4874;DHT22;2451;49.970;9.068;2022-07-10T02:30:46;14.10;99.90
4874;DHT22;2451;49.970;9.068;2022-07-10T02:33:12;14.00;99.90
4874;DHT22;2451;49.970;9.068;2022-07-10T02:35:37;14.10;99.90
4874;DHT22;2451;49.970;9.068;2022-07-10T02:38:03;14.10;99.90
4874;DHT22;2451;49.970;9.068;2022-07-10T02:40:29;14.10;99.90
4874;DHT22;2451;49.970;9.068;2022-07-10T02:42:54;14.10;99.90
4874;DHT22;2451;49.970;9.068;2022-07-10T02:45:20;14.10;99.90
4874;DHT22;2451;49.970;9.068;2022-07-10T02:47:45;14.20;99.90
4874;DHT22;2451;49.970;9.068;2022-07-10T02:50:11;14.20;99.90
4874;DHT22;2451;49.970;9.068;2022-07-10T02:52:36;14.10;99.90
4874;DHT22;2451;49.970;9.068;2022-07-10T02:55:02;14.10;99.90
4874;DHT22;2451;49.970;9.068;2022-07-10T02:57:28;14.10;99.90
4874;DHT22;2451;49.970;9.068;2022-07-10T02:59:53;14.10;99.90
4874;DHT22;2451;49.970;9.068;2022-07-10T03:02:19;14.10;99.90
4874;DHT22;2451;49.970;9.068;2022-07-10T03:04:44;14.00;99.90
4874;DHT22;2451;49.970;9.068;2022-07-10T03:07:10;14.00;99.90
4874;DHT22;2451;49.970;9.068;2022-07-10T03:09:35;14.00;99.90
4874;DHT22;2451;49.970;9.068;2022-07-10T03:12:01;14.00;99.90
4874;DHT22;2451;49.970;9.068;2022-07-10T03:14:27;13.90;99.90
4874;DHT22;2451;49.970;9.068;2022-07-10T03:16:52;13.90;99.90
4874;DHT22;2451;49.970;9.068;2022-07-10T03:19:18;13.90;99.90
4874;DHT22;2451;49.970;9.068;2022-07-10T03:21:43;13.90;99.90
4874;DHT22;2451;49.970;9.068;2022-07-10T03:24:09;13.90;99.90
4874;DHT22;2451;49.970;9.068;2022-07-10T03:26:35;13.90;99.90
4874;DHT22;2451;49.970;9.068;2022-07-10T03:29:00;13.80;99.90
4874;DHT22;2451;49.970;9.068;2022-07-10T03:31:26;13.90;99.90
4874;DHT22;2451;49.970;9.068;2022-07-10T03:33:51;13.90;99.90
4874;DHT22;2451;49.970;9.068;2022-07-10T03:36:18;13.90;99.90
4874;DHT22;2451;49.970;9.068;2022-07-10T03:38:44;13.90;99.90
4874;DHT22;2451;49.970;9.068;2022-07-10T03:41:11;13.90;99.90
4874;DHT22;2451;49.970;9.068;2022-07-10T03:43:36;13.90;99.90
4874;DHT22;2451;49.970;9.068;2022-07-10T03:46:02;13.90;99.90
4874;DHT22;2451;49.970;9.068;2022-07-10T03:48:27;13.90;99.90
4874;DHT22;2451;49.970;9.068;2022-07-10T03:50:53;13.90;99.90
4874;DHT22;2451;49.970;9.068;2022-07-10T03:53:19;13.90;99.90
4874;DHT22;2451;49.970;9.068;2022-07-10T03:55:44;13.90;99.90
4874;DHT22;2451;49.970;9.068;2022-07-10T03:58:10;13.90;99.90
4874;DHT22;2451;49.970;9.068;2022-07-10T04:00:36;14.00;99.90
4874;DHT22;2451;49.970;9.068;2022-07-10T04:03:06;14.00;99.90
4874;DHT22;2451;49.970;9.068;2022-07-10T04:05:33;14.00;99.90
4874;DHT22;2451;49.970;9.068;2022-07-10T04:07:59;14.00;99.90
4874;DHT22;2451;49.970;9.068;2022-07-10T04:10:27;14.00;99.90
4874;DHT22;2451;49.970;9.068;2022-07-10T04:12:53;14.10;99.90
4874;DHT22;2451;49.970;9.068;2022-07-10T04:15:19;14.10;99.90
4874;DHT22;2451;49.970;9.068;2022-07-10T04:17:45;14.10;99.90
4874;DHT22;2451;49.970;9.068;2022-07-10T04:20:11;14.10;99.90
4874;DHT22;2451;49.970;9.068;2022-07-10T04:22:37;14.10;99.90
4874;DHT22;2451;49.970;9.068;2022-07-10T04:25:03;14.20;99.90
4874;DHT22;2451;49.970;9.068;2022-07-10T04:27:29;14.30;99.90
4874;DHT22;2451;49.970;9.068;2022-07-10T04:29:54;14.30;99.90
4874;DHT22;2451;49.970;9.068;2022-07-10T04:32:20;14.30;99.90
4874;DHT22;2451;49.970;9.068;2022-07-10T04:34:46;14.20;99.90
4874;DHT22;2451;49.970;9.068;2022-07-10T04:37:11;14.30;99.90
4874;DHT22;2451;49.970;9.068;2022-07-10T04:39:38;14.30;99.90
4874;DHT22;2451;49.970;9.068;2022-07-10T04:42:05;14.30;99.90
4874;DHT22;2451;49.970;9.068;2022-07-10T04:44:31;14.40;99.90
4874;DHT22;2451;49.970;9.068;2022-07-10T04:46:57;14.30;99.90
4874;DHT22;2451;49.970;9.068;2022-07-10T04:49:22;14.40;99.90
4874;DHT22;2451;49.970;9.068;2022-07-10T04:51:48;14.40;99.90
4874;DHT22;2451;49.970;9.068;2022-07-10T04:54:13;14.40;99.90
4874;DHT22;2451;49.970;9.068;2022-07-10T04:56:39;14.40;99.90
4874;DHT22;2451;49.970;9.068;2022-07-10T04:59:04;14.40;99.90
4874;DHT22;2451;49.970;9.068;2022-07-10T05:01:30;14.40;99.90
4874;DHT22;2451;49.970;9.068;2022-07-10T05:03:55;14.40;99.90
4874;DHT22;2451;49.970;9.068;2022-07-10T05:06:21;14.50;99.90
4874;DHT22;2451;49.970;9.068;2022-07-10T05:08:47;14.50;99.90
4874;DHT22;2451;49.970;9.068;2022-07-10T05:11:12;14.50;99.90
4874;DHT22;2451;49.970;9.068;2022-07-10T05:13:38;14.60;99.90
4874;DHT22;2451;49.970;9.068;2022-07-10T05:16:06;14.70;99.90
4874;DHT22;2451;49.970;9.068;2022-07-10T05:18:32;14.70;99.90
4874;DHT22;2451;49.970;9.068;2022-07-10T05:20:57;14.70;99.90
4874;DHT22;2451;49.970;9.068;2022-07-10T05:23:23;14.80;99.90
4874;DHT22;2451;49.970;9.068;2022-07-10T05:25:49;14.80;99.90
4874;DHT22;2451;49.970;9.068;2022-07-10T05:28:14;14.90;99.90
4874;DHT22;2451;49.970;9.068;2022-07-10T05:30:41;15.00;99.90
4874;DHT22;2451;49.970;9.068;2022-07-10T05:33:07;15.00;99.90
4874;DHT22;2451;49.970;9.068;2022-07-10T05:35:32;15.10;99.90
4874;DHT22;2451;49.970;9.068;2022-07-10T05:37:58;15.30;99.90
4874;DHT22;2451;49.970;9.068;2022-07-10T05:40:24;15.30;99.90
4874;DHT22;2451;49.970;9.068;2022-07-10T05:42:49;15.30;99.90
4874;DHT22;2451;49.970;9.068;2022-07-10T05:45:16;15.40;99.90
4874;DHT22;2451;49.970;9.068;2022-07-10T05:47:41;15.50;99.90
4874;DHT22;2451;49.970;9.068;2022-07-10T05:50:07;15.60;99.90
4874;DHT22;2451;49.970;9.068;2022-07-10T05:52:33;15.50;99.90
4874;DHT22;2451;49.970;9.068;2022-07-10T05:54:59;15.60;99.90
4874;DHT22;2451;49.970;9.068;2022-07-10T05:57:25;15.70;99.90
4874;DHT22;2451;49.970;9.068;2022-07-10T05:59:50;15.60;99.90
4874;DHT22;2451;49.970;9.068;2022-07-10T06:02:16;15.70;99.90
4874;DHT22;2451;49.970;9.068;2022-07-10T06:04:42;15.90;99.90
4874;DHT22;2451;49.970;9.068;2022-07-10T06:07:08;16.00;99.90
4874;DHT22;2451;49.970;9.068;2022-07-10T06:09:34;16.20;99.90
4874;DHT22;2451;49.970;9.068;2022-07-10T06:12:00;16.30;99.90
4874;DHT22;2451;49.970;9.068;2022-07-10T06:14:25;16.40;99.90
4874;DHT22;2451;49.970;9.068;2022-07-10T06:16:51;16.60;99.90
4874;DHT22;2451;49.970;9.068;2022-07-10T06:19:16;16.60;99.90
4874;DHT22;2451;49.970;9.068;2022-07-10T06:21:43;16.60;99.90
4874;DHT22;2451;49.970;9.068;2022-07-10T06:24:09;16.50;99.90
4874;DHT22;2451;49.970;9.068;2022-07-10T06:26:34;16.30;99.90
4874;DHT22;2451;49.970;9.068;2022-07-10T06:29:00;16.20;99.90
4874;DHT22;2451;49.970;9.068;2022-07-10T06:31:25;16.20;99.90
4874;DHT22;2451;49.970;9.068;2022-07-10T06:33:51;16.40;99.90
4874;DHT22;2451;49.970;9.068;2022-07-10T06:36:16;16.50;99.90
4874;DHT22;2451;49.970;9.068;2022-07-10T06:38:42;16.60;99.90
4874;DHT22;2451;49.970;9.068;2022-07-10T06:41:08;16.80;99.90
4874;DHT22;2451;49.970;9.068;2022-07-10T06:43:33;16.70;99.90
4874;DHT22;2451;49.970;9.068;2022-07-10T06:45:59;16.80;99.90
4874;DHT22;2451;49.970;9.068;2022-07-10T06:48:26;16.70;99.90
4874;DHT22;2451;49.970;9.068;2022-07-10T06:50:52;16.70;99.90
4874;DHT22;2451;49.970;9.068;2022-07-10T06:53:18;16.80;99.90
4874;DHT22;2451;49.970;9.068;2022-07-10T06:55:52;16.80;99.90
4874;DHT22;2451;49.970;9.068;2022-07-10T06:58:18;16.80;99.90
4874;DHT22;2451;49.970;9.068;2022-07-10T07:00:43;16.90;99.90
4874;DHT22;2451;49.970;9.068;2022-07-10T07:03:09;17.00;99.90
4874;DHT22;2451;49.970;9.068;2022-07-10T07:05:34;17.10;99.90
4874;DHT22;2451;49.970;9.068;2022-07-10T07:08:00;17.30;99.90
4874;DHT22;2451;49.970;9.068;2022-07-10T07:10:25;17.50;99.90
4874;DHT22;2451;49.970;9.068;2022-07-10T07:12:51;17.90;99.90
4874;DHT22;2451;49.970;9.068;2022-07-10T07:15:17;18.20;99.90
4874;DHT22;2451;49.970;9.068;2022-07-10T07:17:43;18.40;99.90
4874;DHT22;2451;49.970;9.068;2022-07-10T07:20:27;18.40;99.90
4874;DHT22;2451;49.970;9.068;2022-07-10T07:23:11;18.30;99.90
4874;DHT22;2451;49.970;9.068;2022-07-10T07:25:38;18.40;99.90
4874;DHT22;2451;49.970;9.068;2022-07-10T07:28:07;18.60;99.90
4874;DHT22;2451;49.970;9.068;2022-07-10T07:30:33;19.00;99.90
4874;DHT22;2451;49.970;9.068;2022-07-10T07:32:58;19.40;99.90
4874;DHT22;2451;49.970;9.068;2022-07-10T07:35:24;19.60;99.90
4874;DHT22;2451;49.970;9.068;2022-07-10T07:37:50;19.70;98.20
4874;DHT22;2451;49.970;9.068;2022-07-10T07:40:19;19.70;96.30
4874;DHT22;2451;49.970;9.068;2022-07-10T07:42:46;20.10;95.60
4874;DHT22;2451;49.970;9.068;2022-07-10T07:45:12;20.20;96.30
4874;DHT22;2451;49.970;9.068;2022-07-10T07:47:56;20.40;94.20
4874;DHT22;2451;49.970;9.068;2022-07-10T07:50:24;20.40;92.70
4874;DHT22;2451;49.970;9.068;2022-07-10T07:52:51;20.20;92.90
4874;DHT22;2451;49.970;9.068;2022-07-10T07:55:18;20.00;93.90
4874;DHT22;2451;49.970;9.068;2022-07-10T07:57:44;19.90;94.10
4874;DHT22;2451;49.970;9.068;2022-07-10T08:00:11;19.70;94.20
4874;DHT22;2451;49.970;9.068;2022-07-10T08:02:36;19.50;94.30
4874;DHT22;2451;49.970;9.068;2022-07-10T08:05:03;19.20;95.00
4874;DHT22;2451;49.970;9.068;2022-07-10T08:07:44;19.10;95.50
4874;DHT22;2451;49.970;9.068;2022-07-10T08:10:15;19.10;96.50
4874;DHT22;2451;49.970;9.068;2022-07-10T08:12:42;19.00;95.90
4874;DHT22;2451;49.970;9.068;2022-07-10T08:15:09;18.90;96.60
4874;DHT22;2451;49.970;9.068;2022-07-10T08:17:36;18.70;96.80
4874;DHT22;2451;49.970;9.068;2022-07-10T08:20:02;18.70;96.60
4874;DHT22;2451;49.970;9.068;2022-07-10T08:22:28;18.70;97.20
4874;DHT22;2451;49.970;9.068;2022-07-10T08:24:54;18.50;97.30
4874;DHT22;2451;49.970;9.068;2022-07-10T08:27:21;18.50;97.40
4874;DHT22;2451;49.970;9.068;2022-07-10T08:29:47;18.50;98.00
4874;DHT22;2451;49.970;9.068;2022-07-10T08:32:12;18.70;99.90
4874;DHT22;2451;49.970;9.068;2022-07-10T08:34:38;18.80;99.10
4874;DHT22;2451;49.970;9.068;2022-07-10T08:37:04;18.80;96.80
4874;DHT22;2451;49.970;9.068;2022-07-10T08:39:30;18.80;99.90
4874;DHT22;2451;49.970;9.068;2022-07-10T08:41:56;18.80;98.70
4874;DHT22;2451;49.970;9.068;2022-07-10T08:44:22;18.90;97.50
4874;DHT22;2451;49.970;9.068;2022-07-10T08:46:48;19.10;99.90
4874;DHT22;2451;49.970;9.068;2022-07-10T08:49:16;19.30;98.80
4874;DHT22;2451;49.970;9.068;2022-07-10T08:52:06;19.30;96.80
4874;DHT22;2451;49.970;9.068;2022-07-10T08:54:33;19.20;98.90
4874;DHT22;2451;49.970;9.068;2022-07-10T08:57:01;19.40;96.90
4874;DHT22;2451;49.970;9.068;2022-07-10T08:59:28;19.40;96.10
4874;DHT22;2451;49.970;9.068;2022-07-10T09:01:54;19.40;96.70
4874;DHT22;2451;49.970;9.068;2022-07-10T09:04:24;19.50;97.00
4874;DHT22;2451;49.970;9.068;2022-07-10T09:06:51;19.60;98.00
4874;DHT22;2451;49.970;9.068;2022-07-10T09:09:17;19.70;95.90
4874;DHT22;2451;49.970;9.068;2022-07-10T09:11:43;19.90;96.80
4874;DHT22;2451;49.970;9.068;2022-07-10T09:14:16;20.00;96.60
4874;DHT22;2451;49.970;9.068;2022-07-10T09:16:44;20.10;96.70
4874;DHT22;2451;49.970;9.068;2022-07-10T09:19:27;20.20;95.00
4874;DHT22;2451;49.970;9.068;2022-07-10T09:22:07;20.10;97.40
4874;DHT22;2451;49.970;9.068;2022-07-10T09:24:43;20.30;95.50
4874;DHT22;2451;49.970;9.068;2022-07-10T09:27:10;20.30;94.60
4874;DHT22;2451;49.970;9.068;2022-07-10T09:29:52;20.40;94.00
4874;DHT22;2451;49.970;9.068;2022-07-10T09:32:23;20.60;96.10
4874;DHT22;2451;49.970;9.068;2022-07-10T09:34:51;20.80;95.90
4874;DHT22;2451;49.970;9.068;2022-07-10T09:37:41;21.00;95.40
4874;DHT22;2451;49.970;9.068;2022-07-10T09:40:07;21.00;93.30
4874;DHT22;2451;49.970;9.068;2022-07-10T09:42:38;21.00;94.70
4874;DHT22;2451;49.970;9.068;2022-07-10T09:47:37;21.00;92.40
4874;DHT22;2451;49.970;9.068;2022-07-10T09:50:03;21.10;94.50
4874;DHT22;2451;49.970;9.068;2022-07-10T09:52:29;21.30;93.50
4874;DHT22;2451;49.970;9.068;2022-07-10T09:54:56;21.10;92.50
4874;DHT22;2451;49.970;9.068;2022-07-10T09:57:23;21.00;93.70
4874;DHT22;2451;49.970;9.068;2022-07-10T09:59:52;20.90;93.60
4874;DHT22;2451;49.970;9.068;2022-07-10T10:02:19;20.90;95.00
4874;DHT22;2451;49.970;9.068;2022-07-10T10:04:45;21.10;95.40
4874;DHT22;2451;49.970;9.068;2022-07-10T10:07:11;21.20;93.90
4874;DHT22;2451;49.970;9.068;2022-07-10T10:09:41;20.90;93.20
4874;DHT22;2451;49.970;9.068;2022-07-10T10:12:16;20.60;93.60
4874;DHT22;2451;49.970;9.068;2022-07-10T10:14:42;20.70;94.40
4874;DHT22;2451;49.970;9.068;2022-07-10T10:17:08;20.40;93.10
4874;DHT22;2451;49.970;9.068;2022-07-10T10:19:36;20.30;94.90
4874;DHT22;2451;49.970;9.068;2022-07-10T10:22:23;20.50;94.70
4874;DHT22;2451;49.970;9.068;2022-07-10T10:24:49;21.00;93.40
4874;DHT22;2451;49.970;9.068;2022-07-10T10:27:15;21.10;93.70
4874;DHT22;2451;49.970;9.068;2022-07-10T10:29:42;21.10;92.50
4874;DHT22;2451;49.970;9.068;2022-07-10T10:32:08;21.00;92.60
4874;DHT22;2451;49.970;9.068;2022-07-10T10:37:04;21.30;93.30
4874;DHT22;2451;49.970;9.068;2022-07-10T10:39:51;21.80;93.40
4874;DHT22;2451;49.970;9.068;2022-07-10T10:42:41;21.90;92.10
4874;DHT22;2451;49.970;9.068;2022-07-10T10:50:42;23.20;90.70
4874;DHT22;2451;49.970;9.068;2022-07-10T10:55:40;23.10;90.50
4874;DHT22;2451;49.970;9.068;2022-07-10T10:58:16;22.80;90.50
4874;DHT22;2451;49.970;9.068;2022-07-10T11:00:49;22.70;90.40
4874;DHT22;2451;49.970;9.068;2022-07-10T11:03:22;22.70;91.40
4874;DHT22;2451;49.970;9.068;2022-07-10T11:05:50;22.70;90.70
4874;DHT22;2451;49.970;9.068;2022-07-10T11:11:01;23.00;90.00
4874;DHT22;2451;49.970;9.068;2022-07-10T11:13:27;23.20;90.30
4874;DHT22;2451;49.970;9.068;2022-07-10T11:15:55;23.20;90.30
4874;DHT22;2451;49.970;9.068;2022-07-10T11:18:23;23.50;89.40
4874;DHT22;2451;49.970;9.068;2022-07-10T11:20:52;23.80;91.10
4874;DHT22;2451;49.970;9.068;2022-07-10T11:23:51;24.00;89.20
4874;DHT22;2451;49.970;9.068;2022-07-10T11:26:52;24.20;88.80
4874;DHT22;2451;49.970;9.068;2022-07-10T11:29:19;24.00;84.90
4874;DHT22;2451;49.970;9.068;2022-07-10T11:31:52;24.20;86.90
4874;DHT22;2451;49.970;9.068;2022-07-10T11:34:18;24.40;84.80
4874;DHT22;2451;49.970;9.068;2022-07-10T11:36:44;24.00;83.80
4874;DHT22;2451;49.970;9.068;2022-07-10T11:39:12;23.60;83.50
4874;DHT22;2451;49.970;9.068;2022-07-10T11:41:45;23.60;85.10
4874;DHT22;2451;49.970;9.068;2022-07-10T11:44:18;23.70;85.70
4874;DHT22;2451;49.970;9.068;2022-07-10T11:46:44;24.00;85.70
4874;DHT22;2451;49.970;9.068;2022-07-10T11:49:11;24.00;83.20
4874;DHT22;2451;49.970;9.068;2022-07-10T11:51:40;23.90;83.00
4874;DHT22;2451;49.970;9.068;2022-07-10T11:54:11;24.00;83.30
4874;DHT22;2451;49.970;9.068;2022-07-10T11:56:49;24.40;85.70
4874;DHT22;2451;49.970;9.068;2022-07-10T11:59:15;24.70;82.60
4874;DHT22;2451;49.970;9.068;2022-07-10T12:01:46;24.80;82.00
4874;DHT22;2451;49.970;9.068;2022-07-10T12:04:13;24.50;82.10
4874;DHT22;2451;49.970;9.068;2022-07-10T12:06:41;24.40;81.30
4874;DHT22;2451;49.970;9.068;2022-07-10T12:09:09;24.10;79.30
4874;DHT22;2451;49.970;9.068;2022-07-10T12:11:35;23.70;81.10
4874;DHT22;2451;49.970;9.068;2022-07-10T12:14:12;23.50;81.60
4874;DHT22;2451;49.970;9.068;2022-07-10T12:16:47;23.20;84.40
4874;DHT22;2451;49.970;9.068;2022-07-10T12:19:15;23.70;85.60
4874;DHT22;2451;49.970;9.068;2022-07-10T12:21:42;24.30;82.40
4874;DHT22;2451;49.970;9.068;2022-07-10T12:24:08;24.70;82.70
4874;DHT22;2451;49.970;9.068;2022-07-10T12:26:37;24.60;80.70
4874;DHT22;2451;49.970;9.068;2022-07-10T12:29:03;24.50;80.40
4874;DHT22;2451;49.970;9.068;2022-07-10T12:31:32;24.30;80.60
4874;DHT22;2451;49.970;9.068;2022-07-10T12:36:40;24.00;80.20
4874;DHT22;2451;49.970;9.068;2022-07-10T12:39:06;23.50;80.90
4874;DHT22;2451;49.970;9.068;2022-07-10T12:41:31;23.40;80.40
4874;DHT22;2451;49.970;9.068;2022-07-10T12:43:57;23.30;81.40
4874;DHT22;2451;49.970;9.068;2022-07-10T12:46:23;23.20;83.50
4874;DHT22;2451;49.970;9.068;2022-07-10T12:49:08;23.00;81.00
4874;DHT22;2451;49.970;9.068;2022-07-10T12:51:43;22.90;83.00
4874;DHT22;2451;49.970;9.068;2022-07-10T12:54:37;22.90;83.20
4874;DHT22;2451;49.970;9.068;2022-07-10T12:57:04;23.00;82.70
4874;DHT22;2451;49.970;9.068;2022-07-10T12:59:35;23.00;81.10
4874;DHT22;2451;49.970;9.068;2022-07-10T13:02:18;22.70;82.10
4874;DHT22;2451;49.970;9.068;2022-07-10T13:04:57;22.60;82.40
4874;DHT22;2451;49.970;9.068;2022-07-10T13:07:30;22.50;84.40
4874;DHT22;2451;49.970;9.068;2022-07-10T13:09:56;22.50;84.20
4874;DHT22;2451;49.970;9.068;2022-07-10T13:12:23;22.50;84.40
4874;DHT22;2451;49.970;9.068;2022-07-10T13:14:49;22.40;83.70
4874;DHT22;2451;49.970;9.068;2022-07-10T13:17:14;22.10;83.40
4874;DHT22;2451;49.970;9.068;2022-07-10T13:19:40;22.00;83.80
4874;DHT22;2451;49.970;9.068;2022-07-10T13:22:05;22.10;84.20
4874;DHT22;2451;49.970;9.068;2022-07-10T13:24:31;22.10;84.90
4874;DHT22;2451;49.970;9.068;2022-07-10T13:26:56;22.20;85.10
4874;DHT22;2451;49.970;9.068;2022-07-10T13:29:22;22.20;86.00
4874;DHT22;2451;49.970;9.068;2022-07-10T13:31:47;22.30;85.80
4874;DHT22;2451;49.970;9.068;2022-07-10T13:34:13;22.40;84.30
4874;DHT22;2451;49.970;9.068;2022-07-10T13:36:39;22.70;86.50
4874;DHT22;2451;49.970;9.068;2022-07-10T13:39:04;22.70;82.90
4874;DHT22;2451;49.970;9.068;2022-07-10T13:41:30;23.10;85.80
4874;DHT22;2451;49.970;9.068;2022-07-10T13:43:55;23.20;82.00
4874;DHT22;2451;49.970;9.068;2022-07-10T13:46:21;23.00;83.00
4874;DHT22;2451;49.970;9.068;2022-07-10T13:48:46;23.00;82.90
4874;DHT22;2451;49.970;9.068;2022-07-10T13:51:12;22.90;83.80
4874;DHT22;2451;49.970;9.068;2022-07-10T13:53:38;22.70;84.30
4874;DHT22;2451;49.970;9.068;2022-07-10T13:56:07;22.60;83.70
4874;DHT22;2451;49.970;9.068;2022-07-10T13:58:34;22.50;83.60
4874;DHT22;2451;49.970;9.068;2022-07-10T14:01:00;22.40;84.30
4874;DHT22;2451;49.970;9.068;2022-07-10T14:03:26;22.10;83.30
4874;DHT22;2451;49.970;9.068;2022-07-10T14:05:52;22.10;84.50
4874;DHT22;2451;49.970;9.068;2022-07-10T14:08:18;22.10;84.60
4874;DHT22;2451;49.970;9.068;2022-07-10T14:10:44;22.10;83.20
4874;DHT22;2451;49.970;9.068;2022-07-10T14:13:10;22.00;84.80
4874;DHT22;2451;49.970;9.068;2022-07-10T14:15:36;22.00;86.60
4874;DHT22;2451;49.970;9.068;2022-07-10T14:18:01;22.00;85.80
4874;DHT22;2451;49.970;9.068;2022-07-10T14:20:27;22.00;86.00
4874;DHT22;2451;49.970;9.068;2022-07-10T14:22:54;22.00;86.30
4874;DHT22;2451;49.970;9.068;2022-07-10T14:25:22;22.10;87.80
4874;DHT22;2451;49.970;9.068;2022-07-10T14:27:51;22.10;86.90
4874;DHT22;2451;49.970;9.068;2022-07-10T14:30:16;22.20;87.00
4874;DHT22;2451;49.970;9.068;2022-07-10T14:32:43;22.30;86.20
4874;DHT22;2451;49.970;9.068;2022-07-10T14:35:09;22.30;87.30
4874;DHT22;2451;49.970;9.068;2022-07-10T14:37:34;22.30;87.70
4874;DHT22;2451;49.970;9.068;2022-07-10T14:40:00;22.30;87.40
4874;DHT22;2451;49.970;9.068;2022-07-10T14:42:25;22.20;86.90
4874;DHT22;2451;49.970;9.068;2022-07-10T14:44:51;22.10;88.40
4874;DHT22;2451;49.970;9.068;2022-07-10T14:47:16;21.80;86.10
4874;DHT22;2451;49.970;9.068;2022-07-10T14:49:42;21.80;88.30
4874;DHT22;2451;49.970;9.068;2022-07-10T14:52:07;21.90;89.80
4874;DHT22;2451;49.970;9.068;2022-07-10T14:54:33;22.00;89.80
4874;DHT22;2451;49.970;9.068;2022-07-10T14:56:59;22.10;87.60
4874;DHT22;2451;49.970;9.068;2022-07-10T14:59:24;22.10;89.00
4874;DHT22;2451;49.970;9.068;2022-07-10T15:01:50;22.10;87.70
4874;DHT22;2451;49.970;9.068;2022-07-10T15:04:15;22.00;90.10
4874;DHT22;2451;49.970;9.068;2022-07-10T15:06:41;22.10;90.40
4874;DHT22;2451;49.970;9.068;2022-07-10T15:09:06;22.00;88.60
4874;DHT22;2451;49.970;9.068;2022-07-10T15:11:32;22.10;88.40
4874;DHT22;2451;49.970;9.068;2022-07-10T15:13:59;22.10;89.00
4874;DHT22;2451;49.970;9.068;2022-07-10T15:16:28;22.00;87.40
4874;DHT22;2451;49.970;9.068;2022-07-10T15:18:55;22.00;88.50
4874;DHT22;2451;49.970;9.068;2022-07-10T15:21:21;22.10;90.00
4874;DHT22;2451;49.970;9.068;2022-07-10T15:23:47;22.10;89.80
4874;DHT22;2451;49.970;9.068;2022-07-10T15:26:14;22.00;90.90
4874;DHT22;2451;49.970;9.068;2022-07-10T15:28:40;22.00;90.00
4874;DHT22;2451;49.970;9.068;2022-07-10T15:31:06;22.00;88.60
4874;DHT22;2451;49.970;9.068;2022-07-10T15:33:32;21.90;91.00
4874;DHT22;2451;49.970;9.068;2022-07-10T15:35:58;21.90;90.50
4874;DHT22;2451;49.970;9.068;2022-07-10T15:38:24;21.90;90.80
4874;DHT22;2451;49.970;9.068;2022-07-10T15:40:49;21.90;90.50
4874;DHT22;2451;49.970;9.068;2022-07-10T15:43:15;21.80;90.30
4874;DHT22;2451;49.970;9.068;2022-07-10T15:45:40;21.80;90.50
4874;DHT22;2451;49.970;9.068;2022-07-10T15:48:06;21.90;91.00
4874;DHT22;2451;49.970;9.068;2022-07-10T15:50:32;22.00;91.70
4874;DHT22;2451;49.970;9.068;2022-07-10T15:52:57;21.90;90.70
4874;DHT22;2451;49.970;9.068;2022-07-10T15:55:23;21.80;90.40
4874;DHT22;2451;49.970;9.068;2022-07-10T15:57:48;21.80;90.70
4874;DHT22;2451;49.970;9.068;2022-07-10T16:00:14;21.60;90.50
4874;DHT22;2451;49.970;9.068;2022-07-10T16:02:40;21.50;90.80
4874;DHT22;2451;49.970;9.068;2022-07-10T16:05:06;21.30;91.30
4874;DHT22;2451;49.970;9.068;2022-07-10T16:07:32;21.00;90.80
4874;DHT22;2451;49.970;9.068;2022-07-10T16:09:57;20.90;91.10
4874;DHT22;2451;49.970;9.068;2022-07-10T16:12:23;20.80;91.70
4874;DHT22;2451;49.970;9.068;2022-07-10T16:14:49;20.80;92.40
4874;DHT22;2451;49.970;9.068;2022-07-10T16:17:16;20.90;93.00
4874;DHT22;2451;49.970;9.068;2022-07-10T16:19:41;20.80;93.70
4874;DHT22;2451;49.970;9.068;2022-07-10T16:22:07;20.80;93.30